sensor_id;sensor_type;location;lat;lon;timestamp;pressure;altitude;pressure_sealevel;temperature;humidity
67038;BME280;53940;53.204;6.590;2022-07-04T00:02:24;101861.16;;;20.73;57.00
67038;BME280;53940;53.204;6.590;2022-07-04T00:05:24;101862.97;;;20.72;57.13
67038;BME280;53940;53.204;6.590;2022-07-04T00:08:24;101868.31;;;20.72;56.87
67038;BME280;53940;53.204;6.590;2022-07-04T00:11:25;101865.66;;;20.72;57.20
67038;BME280;53940;53.204;6.590;2022-07-04T00:14:25;101862.97;;;20.72;57.01
67038;BME280;53940;53.204;6.590;2022-07-04T00:17:25;101866.63;;;20.71;56.85
67038;BME280;53940;53.204;6.590;2022-07-04T00:20:26;101871.97;;;20.71;57.10
67038;BME280;53940;53.204;6.590;2022-07-04T00:23:26;101870.16;;;20.72;57.08
67038;BME280;53940;53.204;6.590;2022-07-04T00:26:27;101870.16;;;20.72;56.87
67038;BME280;53940;53.204;6.590;2022-07-04T00:29:28;101873.78;;;20.71;57.15
67038;BME280;53940;53.204;6.590;2022-07-04T00:32:29;101872.94;;;20.70;56.88
67038;BME280;53940;53.204;6.590;2022-07-04T00:35:29;101868.44;;;20.71;57.43
67038;BME280;53940;53.204;6.590;2022-07-04T00:38:30;101869.41;;;20.70;56.90
67038;BME280;53940;53.204;6.590;2022-07-04T00:41:30;101868.44;;;20.71;57.14
67038;BME280;53940;53.204;6.590;2022-07-04T00:44:31;101857.72;;;20.71;56.99
67038;BME280;53940;53.204;6.590;2022-07-04T00:47:35;101858.69;;;20.70;57.10
67038;BME280;53940;53.204;6.590;2022-07-04T00:50:35;101857.84;;;20.69;57.05
67038;BME280;53940;53.204;6.590;2022-07-04T00:53:36;101858.69;;;20.70;57.06
67038;BME280;53940;53.204;6.590;2022-07-04T00:56:38;101857.72;;;20.71;56.97
67038;BME280;53940;53.204;6.590;2022-07-04T00:59:38;101850.66;;;20.70;57.09
67038;BME280;53940;53.204;6.590;2022-07-04T01:02:38;101855.19;;;20.69;56.96
67038;BME280;53940;53.204;6.590;2022-07-04T01:05:39;101861.38;;;20.70;56.86
67038;BME280;53940;53.204;6.590;2022-07-04T01:08:41;101859.66;;;20.69;57.01
67038;BME280;53940;53.204;6.590;2022-07-04T01:11:42;101856.00;;;20.70;56.96
67038;BME280;53940;53.204;6.590;2022-07-04T01:14:42;101867.69;;;20.69;57.03
67038;BME280;53940;53.204;6.590;2022-07-04T01:17:43;101863.31;;;20.68;56.71
67038;BME280;53940;53.204;6.590;2022-07-04T01:20:44;101862.34;;;20.69;56.96
67038;BME280;53940;53.204;6.590;2022-07-04T01:23:44;101855.28;;;20.68;56.75
67038;BME280;53940;53.204;6.590;2022-07-04T01:26:45;101852.59;;;20.68;56.78
67038;BME280;53940;53.204;6.590;2022-07-04T01:29:45;101843.59;;;20.69;56.74
67038;BME280;53940;53.204;6.590;2022-07-04T01:32:46;101846.28;;;20.69;56.89
67038;BME280;53940;53.204;6.590;2022-07-04T01:35:47;101838.34;;;20.67;56.80
67038;BME280;53940;53.204;6.590;2022-07-04T01:38:47;101846.28;;;20.69;56.96
67038;BME280;53940;53.204;6.590;2022-07-04T01:41:47;101848.13;;;20.68;56.92
67038;BME280;53940;53.204;6.590;2022-07-04T01:44:48;101849.81;;;20.69;56.89
67038;BME280;53940;53.204;6.590;2022-07-04T01:47:48;101842.75;;;20.68;56.74
67038;BME280;53940;53.204;6.590;2022-07-04T01:50:48;101841.91;;;20.68;57.00
67038;BME280;53940;53.204;6.590;2022-07-04T01:53:49;101840.91;;;20.69;56.62
67038;BME280;53940;53.204;6.590;2022-07-04T01:56:49;101847.25;;;20.68;57.00
67038;BME280;53940;53.204;6.590;2022-07-04T01:59:49;101840.91;;;20.69;56.90
67038;BME280;53940;53.204;6.590;2022-07-04T02:03:09;101837.41;;;20.68;56.72
67038;BME280;53940;53.204;6.590;2022-07-04T02:06:09;101831.19;;;20.68;56.81
67038;BME280;53940;53.204;6.590;2022-07-04T02:09:10;101833.84;;;20.68;56.88
67038;BME280;53940;53.204;6.590;2022-07-04T02:12:16;101830.31;;;20.67;56.77
67038;BME280;53940;53.204;6.590;2022-07-04T02:15:39;101843.69;;;20.67;56.74
67038;BME280;53940;53.204;6.590;2022-07-04T02:18:41;101845.53;;;20.67;56.54
67038;BME280;53940;53.204;6.590;2022-07-04T02:21:41;101830.31;;;20.67;56.77
67038;BME280;53940;53.204;6.590;2022-07-04T02:24:41;101833.84;;;20.68;56.60
67038;BME280;53940;53.204;6.590;2022-07-04T02:27:42;101828.50;;;20.68;56.54
67038;BME280;53940;53.204;6.590;2022-07-04T02:30:42;101825.81;;;20.68;56.75
67038;BME280;53940;53.204;6.590;2022-07-04T02:33:43;101832.03;;;20.68;56.53
67038;BME280;53940;53.204;6.590;2022-07-04T02:36:43;101824.94;;;20.67;56.47
67038;BME280;53940;53.204;6.590;2022-07-04T02:39:43;101823.16;;;20.68;56.56
67038;BME280;53940;53.204;6.590;2022-07-04T02:42:44;101818.75;;;20.67;56.59
67038;BME280;53940;53.204;6.590;2022-07-04T02:45:45;101819.59;;;20.67;56.48
67038;BME280;53940;53.204;6.590;2022-07-04T02:48:45;101815.09;;;20.68;56.56
67038;BME280;53940;53.204;6.590;2022-07-04T02:51:45;101815.09;;;20.68;56.74
67038;BME280;53940;53.204;6.590;2022-07-04T02:54:46;101813.41;;;20.67;56.30
67038;BME280;53940;53.204;6.590;2022-07-04T02:57:46;101813.41;;;20.67;56.65
67038;BME280;53940;53.204;6.590;2022-07-04T03:00:47;101808.88;;;20.67;56.39
67038;BME280;53940;53.204;6.590;2022-07-04T03:03:47;101814.25;;;20.67;56.65
67038;BME280;53940;53.204;6.590;2022-07-04T03:06:47;101821.34;;;20.68;56.63
67038;BME280;53940;53.204;6.590;2022-07-04T03:09:48;101822.28;;;20.67;56.26
67038;BME280;53940;53.204;6.590;2022-07-04T03:12:48;101824.94;;;20.67;56.36
67038;BME280;53940;53.204;6.590;2022-07-04T03:15:48;101828.50;;;20.68;56.25
67038;BME280;53940;53.204;6.590;2022-07-04T03:18:49;101825.81;;;20.68;56.38
67038;BME280;53940;53.204;6.590;2022-07-04T03:21:49;101820.47;;;20.68;56.48
67038;BME280;53940;53.204;6.590;2022-07-04T03:24:49;101824.94;;;20.67;56.62
67038;BME280;53940;53.204;6.590;2022-07-04T03:27:50;101826.78;;;20.67;56.27
67038;BME280;53940;53.204;6.590;2022-07-04T03:30:50;101836.53;;;20.68;56.44
67038;BME280;53940;53.204;6.590;2022-07-04T03:33:51;101825.81;;;20.68;56.54
67038;BME280;53940;53.204;6.590;2022-07-04T03:36:51;101826.69;;;20.68;56.46
67038;BME280;53940;53.204;6.590;2022-07-04T03:39:52;101823.16;;;20.68;56.34
67038;BME280;53940;53.204;6.590;2022-07-04T03:42:52;101821.34;;;20.68;56.65
67038;BME280;53940;53.204;6.590;2022-07-04T03:45:53;101825.81;;;20.68;56.23
67038;BME280;53940;53.204;6.590;2022-07-04T03:48:53;101832.88;;;20.69;56.29
67038;BME280;53940;53.204;6.590;2022-07-04T03:51:55;101839.94;;;20.70;56.11
67038;BME280;53940;53.204;6.590;2022-07-04T03:54:55;101832.88;;;20.69;56.11
67038;BME280;53940;53.204;6.590;2022-07-04T03:57:55;101829.22;;;20.70;56.30
67038;BME280;53940;53.204;6.590;2022-07-04T04:00:55;101831.91;;;20.70;56.26
67038;BME280;53940;53.204;6.590;2022-07-04T04:03:58;101835.44;;;20.70;56.18
67038;BME280;53940;53.204;6.590;2022-07-04T04:07:16;101826.44;;;20.71;56.20
67038;BME280;53940;53.204;6.590;2022-07-04T04:10:17;101816.59;;;20.72;56.19
67038;BME280;53940;53.204;6.590;2022-07-04T04:13:17;101813.91;;;20.72;56.34
67038;BME280;53940;53.204;6.590;2022-07-04T04:16:18;101805.88;;;20.72;56.42
67038;BME280;53940;53.204;6.590;2022-07-04T04:19:18;101823.66;;;20.73;56.33
67038;BME280;53940;53.204;6.590;2022-07-04T04:22:18;101816.44;;;20.73;56.47
67038;BME280;53940;53.204;6.590;2022-07-04T04:25:19;101820.97;;;20.73;56.15
67038;BME280;53940;53.204;6.590;2022-07-04T04:28:19;101814.66;;;20.74;56.04
67038;BME280;53940;53.204;6.590;2022-07-04T04:31:20;101812.84;;;20.74;56.11
67038;BME280;53940;53.204;6.590;2022-07-04T04:34:20;101816.34;;;20.75;56.46
67038;BME280;53940;53.204;6.590;2022-07-04T04:37:20;101822.56;;;20.76;56.31
67038;BME280;53940;53.204;6.590;2022-07-04T04:40:21;101829.63;;;20.77;56.02
67038;BME280;53940;53.204;6.590;2022-07-04T04:43:21;101829.63;;;20.77;56.33
67038;BME280;53940;53.204;6.590;2022-07-04T04:46:21;101832.19;;;20.78;56.01
67038;BME280;53940;53.204;6.590;2022-07-04T04:49:22;101838.50;;;20.77;56.10
67038;BME280;53940;53.204;6.590;2022-07-04T04:52:22;101842.91;;;20.78;56.11
67038;BME280;53940;53.204;6.590;2022-07-04T04:55:23;101833.91;;;20.79;56.21
67038;BME280;53940;53.204;6.590;2022-07-04T04:58:23;101829.38;;;20.80;56.08
67038;BME280;53940;53.204;6.590;2022-07-04T05:01:24;101830.25;;;20.80;56.10
67038;BME280;53940;53.204;6.590;2022-07-04T05:04:24;101834.75;;;20.80;56.09
67038;BME280;53940;53.204;6.590;2022-07-04T05:07:25;101836.34;;;20.82;56.08
67038;BME280;53940;53.204;6.590;2022-07-04T05:10:26;101833.66;;;20.82;56.20
67038;BME280;53940;53.204;6.590;2022-07-04T05:13:26;101833.66;;;20.82;55.85
67038;BME280;53940;53.204;6.590;2022-07-04T05:16:26;101845.25;;;20.83;56.00
67038;BME280;53940;53.204;6.590;2022-07-04T05:19:27;101844.25;;;20.84;55.97
67038;BME280;53940;53.204;6.590;2022-07-04T05:22:27;101836.22;;;20.84;56.03
67038;BME280;53940;53.204;6.590;2022-07-04T05:25:27;101847.84;;;20.84;55.89
67038;BME280;53940;53.204;6.590;2022-07-04T05:28:28;101835.28;;;20.85;55.90
67038;BME280;53940;53.204;6.590;2022-07-04T05:31:28;101839.66;;;20.86;56.01
67038;BME280;53940;53.204;6.590;2022-07-04T05:34:29;101852.94;;;20.87;56.03
67038;BME280;53940;53.204;6.590;2022-07-04T05:37:29;101848.47;;;20.88;55.88
67038;BME280;53940;53.204;6.590;2022-07-04T05:40:30;101843.94;;;20.89;55.98
67038;BME280;53940;53.204;6.590;2022-07-04T05:43:30;101847.47;;;20.89;56.16
67038;BME280;53940;53.204;6.590;2022-07-04T05:46:31;101852.72;;;20.91;55.77
67038;BME280;53940;53.204;6.590;2022-07-04T05:49:31;101856.25;;;20.91;56.12
67038;BME280;53940;53.204;6.590;2022-07-04T05:52:31;101865.16;;;20.92;55.89
67038;BME280;53940;53.204;6.590;2022-07-04T05:55:32;101865.88;;;20.94;55.60
67038;BME280;53940;53.204;6.590;2022-07-04T05:58:33;101870.25;;;20.95;56.02
67038;BME280;53940;53.204;6.590;2022-07-04T06:01:33;101866.59;;;20.96;55.95
67038;BME280;53940;53.204;6.590;2022-07-04T06:04:33;101861.03;;;20.99;55.92
67038;BME280;53940;53.204;6.590;2022-07-04T06:07:34;101864.44;;;21.01;55.90
67038;BME280;53940;53.204;6.590;2022-07-04T06:10:34;101858.75;;;21.06;55.77
67038;BME280;53940;53.204;6.590;2022-07-04T06:13:35;101860.09;;;21.11;55.61
67038;BME280;53940;53.204;6.590;2022-07-04T06:16:35;101857.06;;;21.16;55.64
67038;BME280;53940;53.204;6.590;2022-07-04T06:19:35;101861.09;;;21.22;55.52
67038;BME280;53940;53.204;6.590;2022-07-04T06:22:41;101862.44;;;21.27;55.83
67038;BME280;53940;53.204;6.590;2022-07-04T06:25:41;101858.56;;;21.32;55.72
67038;BME280;53940;53.204;6.590;2022-07-04T06:28:42;101854.53;;;21.37;55.71
67038;BME280;53940;53.204;6.590;2022-07-04T06:31:42;101855.03;;;21.43;55.59
67038;BME280;53940;53.204;6.590;2022-07-04T06:34:43;101856.38;;;21.48;55.49
67038;BME280;53940;53.204;6.590;2022-07-04T06:38:01;101856.75;;;21.55;55.67
67038;BME280;53940;53.204;6.590;2022-07-04T06:41:02;101857.97;;;21.62;55.42
67038;BME280;53940;53.204;6.590;2022-07-04T06:44:02;101860.28;;;21.67;55.26
67038;BME280;53940;53.204;6.590;2022-07-04T06:47:03;101861.66;;;21.73;55.28
67038;BME280;53940;53.204;6.590;2022-07-04T06:50:04;101851.44;;;21.78;55.19
67038;BME280;53940;53.204;6.590;2022-07-04T06:53:06;101850.06;;;21.84;55.27
67038;BME280;53940;53.204;6.590;2022-07-04T06:56:06;101851.44;;;21.89;55.24
67038;BME280;53940;53.204;6.590;2022-07-04T06:59:06;101850.94;;;21.96;54.89
67038;BME280;53940;53.204;6.590;2022-07-04T07:02:07;101849.69;;;22.00;55.00
67038;BME280;53940;53.204;6.590;2022-07-04T07:05:07;101851.03;;;22.05;54.82
67038;BME280;53940;53.204;6.590;2022-07-04T07:08:08;101857.72;;;22.11;55.05
67038;BME280;53940;53.204;6.590;2022-07-04T07:11:08;101856.41;;;22.17;54.66
67038;BME280;53940;53.204;6.590;2022-07-04T07:14:16;101849.66;;;22.23;54.77
67038;BME280;53940;53.204;6.590;2022-07-04T07:17:17;101849.41;;;22.26;54.52
67038;BME280;53940;53.204;6.590;2022-07-04T07:20:17;101852.56;;;22.31;54.55
67038;BME280;53940;53.204;6.590;2022-07-04T07:23:17;101853.03;;;22.36;54.51
67038;BME280;53940;53.204;6.590;2022-07-04T07:26:18;101856.31;;;22.40;54.50
67038;BME280;53940;53.204;6.590;2022-07-04T07:29:18;101849.84;;;22.42;54.39
67038;BME280;53940;53.204;6.590;2022-07-04T07:32:18;101845.19;;;22.44;54.23
67038;BME280;53940;53.204;6.590;2022-07-04T07:35:19;101853.25;;;22.44;54.45
67038;BME280;53940;53.204;6.590;2022-07-04T07:38:19;101862.16;;;22.45;54.31
67038;BME280;53940;53.204;6.590;2022-07-04T07:41:20;101854.97;;;22.45;54.28
67038;BME280;53940;53.204;6.590;2022-07-04T07:44:20;101849.34;;;22.48;54.04
67038;BME280;53940;53.204;6.590;2022-07-04T07:47:21;101849.13;;;22.52;54.07
67038;BME280;53940;53.204;6.590;2022-07-04T07:50:21;101843.50;;;22.55;53.94
67038;BME280;53940;53.204;6.590;2022-07-04T07:53:21;101844.81;;;22.60;53.92
67038;BME280;53940;53.204;6.590;2022-07-04T07:56:22;101846.41;;;22.63;53.95
67038;BME280;53940;53.204;6.590;2022-07-04T07:59:22;101846.13;;;22.66;53.57
67038;BME280;53940;53.204;6.590;2022-07-04T08:02:23;101837.09;;;22.67;53.80
67038;BME280;53940;53.204;6.590;2022-07-04T08:05:43;101839.91;;;22.66;53.76
67038;BME280;53940;53.204;6.590;2022-07-04T08:08:44;101839.06;;;22.65;53.90
67038;BME280;53940;53.204;6.590;2022-07-04T08:11:44;101842.84;;;22.63;53.99
67038;BME280;53940;53.204;6.590;2022-07-04T08:14:45;101848.34;;;22.61;53.78
67038;BME280;53940;53.204;6.590;2022-07-04T08:17:45;101852.03;;;22.60;53.92
67038;BME280;53940;53.204;6.590;2022-07-04T08:20:46;101848.63;;;22.58;54.07
67038;BME280;53940;53.204;6.590;2022-07-04T08:23:46;101861.31;;;22.56;53.82
67038;BME280;53940;53.204;6.590;2022-07-04T08:26:47;101854.22;;;22.55;53.68
67038;BME280;53940;53.204;6.590;2022-07-04T08:29:48;101864.25;;;22.53;53.87
67038;BME280;53940;53.204;6.590;2022-07-04T08:32:48;101858.13;;;22.51;53.98
67038;BME280;53940;53.204;6.590;2022-07-04T08:35:49;101858.25;;;22.49;53.94
67038;BME280;53940;53.204;6.590;2022-07-04T08:38:49;101853.00;;;22.47;53.79
67038;BME280;53940;53.204;6.590;2022-07-04T08:41:51;101854.97;;;22.45;53.79
67038;BME280;53940;53.204;6.590;2022-07-04T08:44:53;101858.63;;;22.44;54.02
67038;BME280;53940;53.204;6.590;2022-07-04T08:48:02;101862.28;;;22.43;53.98
67038;BME280;53940;53.204;6.590;2022-07-04T08:51:13;101862.28;;;22.43;53.81
67038;BME280;53940;53.204;6.590;2022-07-04T08:54:15;101865.72;;;22.45;54.07
67038;BME280;53940;53.204;6.590;2022-07-04T08:57:34;101865.72;;;22.45;53.95
67038;BME280;53940;53.204;6.590;2022-07-04T09:00:54;101857.41;;;22.48;53.65
67038;BME280;53940;53.204;6.590;2022-07-04T09:03:55;101859.97;;;22.50;53.69
67038;BME280;53940;53.204;6.590;2022-07-04T09:06:56;101857.91;;;22.54;53.86
67038;BME280;53940;53.204;6.590;2022-07-04T09:09:57;101860.19;;;22.58;53.76
67038;BME280;53940;53.204;6.590;2022-07-04T09:13:01;101855.31;;;22.64;53.67
67038;BME280;53940;53.204;6.590;2022-07-04T09:16:03;101857.59;;;22.68;53.58
67038;BME280;53940;53.204;6.590;2022-07-04T09:19:09;101856.38;;;22.72;53.19
67038;BME280;53940;53.204;6.590;2022-07-04T09:22:10;101858.81;;;22.75;53.45
67038;BME280;53940;53.204;6.590;2022-07-04T09:25:16;101851.59;;;22.76;53.50
67038;BME280;53940;53.204;6.590;2022-07-04T09:28:27;101859.78;;;22.74;53.15
67038;BME280;53940;53.204;6.590;2022-07-04T09:31:30;101863.44;;;22.73;53.48
67038;BME280;53940;53.204;6.590;2022-07-04T09:34:31;101859.91;;;22.73;53.46
67038;BME280;53940;53.204;6.590;2022-07-04T09:37:39;101863.44;;;22.73;53.34
67038;BME280;53940;53.204;6.590;2022-07-04T09:40:40;101850.75;;;22.75;53.38
67038;BME280;53940;53.204;6.590;2022-07-04T09:44:19;101866.00;;;22.75;53.36
67038;BME280;53940;53.204;6.590;2022-07-04T09:47:24;101862.59;;;22.73;53.38
67038;BME280;53940;53.204;6.590;2022-07-04T09:50:26;101870.78;;;22.71;53.57
67038;BME280;53940;53.204;6.590;2022-07-04T09:53:28;101868.94;;;22.72;53.52
67038;BME280;53940;53.204;6.590;2022-07-04T09:56:48;101876.16;;;22.71;53.31
67038;BME280;53940;53.204;6.590;2022-07-04T09:59:49;101874.19;;;22.73;53.63
67038;BME280;53940;53.204;6.590;2022-07-04T10:02:50;101867.13;;;22.72;53.54
67038;BME280;53940;53.204;6.590;2022-07-04T10:06:08;101866.41;;;22.70;53.44
67038;BME280;53940;53.204;6.590;2022-07-04T10:09:15;101869.94;;;22.71;53.36
67038;BME280;53940;53.204;6.590;2022-07-04T10:12:25;101861.75;;;22.72;53.33
67038;BME280;53940;53.204;6.590;2022-07-04T10:15:26;101858.06;;;22.73;53.24
67038;BME280;53940;53.204;6.590;2022-07-04T10:18:27;101862.22;;;22.78;53.30
67038;BME280;53940;53.204;6.590;2022-07-04T10:21:28;101868.41;;;22.78;53.33
67038;BME280;53940;53.204;6.590;2022-07-04T10:24:28;101871.09;;;22.78;53.23
67038;BME280;53940;53.204;6.590;2022-07-04T10:27:30;101865.03;;;22.76;53.35
67038;BME280;53940;53.204;6.590;2022-07-04T10:30:32;101866.88;;;22.75;53.26
67038;BME280;53940;53.204;6.590;2022-07-04T10:33:34;101867.81;;;22.74;53.25
67038;BME280;53940;53.204;6.590;2022-07-04T10:36:34;101868.81;;;22.73;53.44
67038;BME280;53940;53.204;6.590;2022-07-04T10:39:34;101872.50;;;22.72;53.31
67038;BME280;53940;53.204;6.590;2022-07-04T10:42:35;101869.09;;;22.70;53.27
67038;BME280;53940;53.204;6.590;2022-07-04T10:45:35;101866.53;;;22.69;53.47
67038;BME280;53940;53.204;6.590;2022-07-04T10:48:51;101873.00;;;22.66;53.50
67038;BME280;53940;53.204;6.590;2022-07-04T10:55:12;101856.28;;;22.63;53.61
67038;BME280;53940;53.204;6.590;2022-07-04T10:58:39;101863.47;;;22.62;53.87
67038;BME280;53940;53.204;6.590;2022-07-04T11:01:45;101862.78;;;22.60;53.72
67038;BME280;53940;53.204;6.590;2022-07-04T11:05:04;101863.00;;;22.57;53.84
67038;BME280;53940;53.204;6.590;2022-07-04T11:08:05;101863.00;;;22.57;53.71
67038;BME280;53940;53.204;6.590;2022-07-04T11:14:46;101851.66;;;22.53;54.17
67038;BME280;53940;53.204;6.590;2022-07-04T11:17:47;101853.53;;;22.53;54.05
67038;BME280;53940;53.204;6.590;2022-07-04T11:20:48;101859.88;;;22.52;54.02
67038;BME280;53940;53.204;6.590;2022-07-04T11:23:49;101852.75;;;22.51;54.03
67038;BME280;53940;53.204;6.590;2022-07-04T11:26:50;101857.19;;;22.52;53.95
67038;BME280;53940;53.204;6.590;2022-07-04T11:29:54;101853.72;;;22.49;54.02
67038;BME280;53940;53.204;6.590;2022-07-04T11:32:55;101850.22;;;22.49;53.90
67038;BME280;53940;53.204;6.590;2022-07-04T11:36:12;101860.19;;;22.47;53.91
67038;BME280;53940;53.204;6.590;2022-07-04T11:39:16;101850.44;;;22.46;54.18
67038;BME280;53940;53.204;6.590;2022-07-04T11:42:19;101847.88;;;22.44;54.00
67038;BME280;53940;53.204;6.590;2022-07-04T11:45:38;101845.34;;;22.43;54.11
67038;BME280;53940;53.204;6.590;2022-07-04T11:48:38;101844.47;;;22.42;53.99
67038;BME280;53940;53.204;6.590;2022-07-04T11:51:43;101853.50;;;22.41;54.05
67038;BME280;53940;53.204;6.590;2022-07-04T11:54:45;101846.44;;;22.40;54.21
67038;BME280;53940;53.204;6.590;2022-07-04T11:57:50;101847.56;;;22.38;54.36
67038;BME280;53940;53.204;6.590;2022-07-04T12:00:52;101844.00;;;22.37;54.03
67038;BME280;53940;53.204;6.590;2022-07-04T12:03:52;101844.97;;;22.36;54.29
67038;BME280;53940;53.204;6.590;2022-07-04T12:06:52;101845.09;;;22.34;54.41
67038;BME280;53940;53.204;6.590;2022-07-04T12:09:54;101839.88;;;22.33;54.14
67038;BME280;53940;53.204;6.590;2022-07-04T12:12:57;101841.81;;;22.31;54.25
67038;BME280;53940;53.204;6.590;2022-07-04T12:15:58;101836.44;;;22.31;54.11
67038;BME280;53940;53.204;6.590;2022-07-04T12:19:08;101838.41;;;22.29;54.36
67038;BME280;53940;53.204;6.590;2022-07-04T12:22:09;101835.00;;;22.27;54.50
67038;BME280;53940;53.204;6.590;2022-07-04T12:28:22;101836.94;;;22.25;54.45
67038;BME280;53940;53.204;6.590;2022-07-04T12:31:38;101844.28;;;22.23;54.39
67038;BME280;53940;53.204;6.590;2022-07-04T12:34:39;101840.88;;;22.20;54.51
67038;BME280;53940;53.204;6.590;2022-07-04T12:37:40;101845.41;;;22.20;54.28
67038;BME280;53940;53.204;6.590;2022-07-04T12:41:13;101836.63;;;22.18;54.24
67038;BME280;53940;53.204;6.590;2022-07-04T12:44:21;101837.59;;;22.17;54.50
67038;BME280;53940;53.204;6.590;2022-07-04T12:47:21;101833.19;;;22.16;54.54
67038;BME280;53940;53.204;6.590;2022-07-04T12:50:26;101832.34;;;22.15;54.25
67038;BME280;53940;53.204;6.590;2022-07-04T12:53:36;101831.59;;;22.13;54.39
67038;BME280;53940;53.204;6.590;2022-07-04T12:56:41;101835.16;;;22.14;54.42
67038;BME280;53940;53.204;6.590;2022-07-04T12:59:42;101832.59;;;22.12;54.53
67038;BME280;53940;53.204;6.590;2022-07-04T13:02:42;101832.59;;;22.12;54.45
67038;BME280;53940;53.204;6.590;2022-07-04T13:05:43;101833.47;;;22.13;54.67
67038;BME280;53940;53.204;6.590;2022-07-04T13:08:43;101826.38;;;22.12;54.63
67038;BME280;53940;53.204;6.590;2022-07-04T13:11:43;101833.56;;;22.11;54.36
67038;BME280;53940;53.204;6.590;2022-07-04T13:15:16;101841.63;;;22.11;54.42
67038;BME280;53940;53.204;6.590;2022-07-04T13:18:18;101841.63;;;22.11;54.55
67038;BME280;53940;53.204;6.590;2022-07-04T13:21:18;101839.94;;;22.10;54.54
67038;BME280;53940;53.204;6.590;2022-07-04T13:24:18;101845.28;;;22.10;54.65
67038;BME280;53940;53.204;6.590;2022-07-04T13:27:21;101852.38;;;22.11;54.53
67038;BME280;53940;53.204;6.590;2022-07-04T13:30:22;101857.72;;;22.11;54.41
67038;BME280;53940;53.204;6.590;2022-07-04T13:33:22;101859.59;;;22.11;54.49
67038;BME280;53940;53.204;6.590;2022-07-04T13:36:22;101861.41;;;22.10;54.56
67038;BME280;53940;53.204;6.590;2022-07-04T13:39:23;101870.44;;;22.09;54.45
67038;BME280;53940;53.204;6.590;2022-07-04T13:42:24;101865.06;;;22.09;54.51
67038;BME280;53940;53.204;6.590;2022-07-04T13:45:43;101869.56;;;22.08;54.50
67038;BME280;53940;53.204;6.590;2022-07-04T13:48:47;101868.72;;;22.08;54.64
67038;BME280;53940;53.204;6.590;2022-07-04T13:51:48;101883.00;;;22.08;54.66
67038;BME280;53940;53.204;6.590;2022-07-04T13:54:49;101884.84;;;22.08;54.66
67038;BME280;53940;53.204;6.590;2022-07-04T13:57:49;101880.31;;;22.08;54.61
67038;BME280;53940;53.204;6.590;2022-07-04T14:00:50;101885.69;;;22.08;54.53
67038;BME280;53940;53.204;6.590;2022-07-04T14:03:51;101878.72;;;22.06;54.58
67038;BME280;53940;53.204;6.590;2022-07-04T14:06:51;101878.72;;;22.06;54.74
67038;BME280;53940;53.204;6.590;2022-07-04T14:09:51;101877.88;;;22.05;54.44
67038;BME280;53940;53.204;6.590;2022-07-04T14:12:52;101885.06;;;22.05;54.68
67038;BME280;53940;53.204;6.590;2022-07-04T14:15:53;101878.00;;;22.04;54.66
67038;BME280;53940;53.204;6.590;2022-07-04T14:18:53;101877.13;;;22.03;54.75
67038;BME280;53940;53.204;6.590;2022-07-04T14:21:53;101881.66;;;22.03;54.63
67038;BME280;53940;53.204;6.590;2022-07-04T14:24:54;101879.97;;;22.02;54.90
67038;BME280;53940;53.204;6.590;2022-07-04T14:27:54;101883.59;;;22.01;54.65
67038;BME280;53940;53.204;6.590;2022-07-04T14:30:54;101888.13;;;22.00;54.65
67038;BME280;53940;53.204;6.590;2022-07-04T14:33:55;101881.06;;;21.99;54.66
67038;BME280;53940;53.204;6.590;2022-07-04T14:36:56;101892.91;;;21.97;54.74
67038;BME280;53940;53.204;6.590;2022-07-04T14:39:56;101885.81;;;21.96;54.84
67038;BME280;53940;53.204;6.590;2022-07-04T14:42:56;101886.78;;;21.94;54.60
67038;BME280;53940;53.204;6.590;2022-07-04T14:45:57;101884.09;;;21.94;54.78
67038;BME280;53940;53.204;6.590;2022-07-04T14:48:57;101886.78;;;21.94;54.70
67038;BME280;53940;53.204;6.590;2022-07-04T14:51:57;101886.06;;;21.92;54.93
67038;BME280;53940;53.204;6.590;2022-07-04T14:54:58;101892.41;;;21.91;54.75
67038;BME280;53940;53.204;6.590;2022-07-04T14:57:58;101892.41;;;21.91;55.17
67038;BME280;53940;53.204;6.590;2022-07-04T15:00:58;101888.03;;;21.90;54.88
67038;BME280;53940;53.204;6.590;2022-07-04T15:03:59;101891.69;;;21.89;55.01
67038;BME280;53940;53.204;6.590;2022-07-04T15:06:59;101886.31;;;21.89;55.01
67038;BME280;53940;53.204;6.590;2022-07-04T15:10:00;101888.13;;;21.89;54.73
67038;BME280;53940;53.204;6.590;2022-07-04T15:13:00;101888.25;;;21.87;54.86
67038;BME280;53940;53.204;6.590;2022-07-04T15:16:01;101896.31;;;21.87;54.98
67038;BME280;53940;53.204;6.590;2022-07-04T15:19:01;101896.31;;;21.87;54.98
67038;BME280;53940;53.204;6.590;2022-07-04T15:22:01;101891.91;;;21.86;54.72
67038;BME280;53940;53.204;6.590;2022-07-04T15:25:20;101899.97;;;21.86;55.16
67038;BME280;53940;53.204;6.590;2022-07-04T15:28:21;101902.66;;;21.86;54.84
67038;BME280;53940;53.204;6.590;2022-07-04T15:31:21;101890.22;;;21.85;55.00
67038;BME280;53940;53.204;6.590;2022-07-04T15:34:21;101886.66;;;21.85;55.02
67038;BME280;53940;53.204;6.590;2022-07-04T15:37:22;101895.69;;;21.84;55.02
67038;BME280;53940;53.204;6.590;2022-07-04T15:40:22;101909.97;;;21.84;55.08
67038;BME280;53940;53.204;6.590;2022-07-04T15:43:23;101907.41;;;21.83;55.15
67038;BME280;53940;53.204;6.590;2022-07-04T15:46:23;101904.72;;;21.83;55.16
67038;BME280;53940;53.204;6.590;2022-07-04T15:49:24;101908.38;;;21.81;55.00
67038;BME280;53940;53.204;6.590;2022-07-04T15:52:24;101899.47;;;21.81;54.83
67038;BME280;53940;53.204;6.590;2022-07-04T15:55:25;101895.09;;;21.80;54.87
67038;BME280;53940;53.204;6.590;2022-07-04T15:58:26;101896.06;;;21.79;55.27
67038;BME280;53940;53.204;6.590;2022-07-04T16:01:26;101894.38;;;21.78;55.01
67038;BME280;53940;53.204;6.590;2022-07-04T16:04:27;101897.03;;;21.78;54.94